sensor_id;sensor_type;location;lat;lon;timestamp;P1;P2;P0
32066;PMS7003;18573;47.890;35.066;2023-06-26T15:24:51;12.00;12.00;9.60
32066;PMS7003;18573;47.890;35.066;2023-06-26T15:27:21;11.20;11.20;10.00
32066;PMS7003;18573;47.890;35.066;2023-06-26T15:29:51;14.60;14.60;10.60
32066;PMS7003;18573;47.890;35.066;2023-06-26T15:32:20;12.00;12.00;10.00
32066;PMS7003;18573;47.890;35.066;2023-06-26T15:34:50;11.40;11.40;9.80
32066;PMS7003;18573;47.890;35.066;2023-06-26T15:37:21;8.40;8.40;8.00
32066;PMS7003;18573;47.890;35.066;2023-06-26T15:39:50;8.80;8.80;7.20
32066;PMS7003;18573;47.890;35.066;2023-06-26T15:42:20;9.80;9.80;7.40
32066;PMS7003;18573;47.890;35.066;2023-06-26T15:44:50;8.80;8.80;6.80
32066;PMS7003;18573;47.890;35.066;2023-06-26T15:47:20;8.80;8.80;8.00
32066;PMS7003;18573;47.890;35.066;2023-06-26T15:49:49;10.80;10.80;8.60
32066;PMS7003;18573;47.890;35.066;2023-06-26T15:52:21;10.80;10.80;8.60
32066;PMS7003;18573;47.890;35.066;2023-06-26T15:54:50;10.20;10.20;8.40
32066;PMS7003;18573;47.890;35.066;2023-06-26T15:57:19;9.00;9.00;7.40
32066;PMS7003;18573;47.890;35.066;2023-06-26T15:59:50;8.00;8.00;6.60
32066;PMS7003;18573;47.890;35.066;2023-06-26T16:02:20;10.00;10.00;7.60
32066;PMS7003;18573;47.890;35.066;2023-06-26T16:04:50;7.60;7.60;6.00
32066;PMS7003;18573;47.890;35.066;2023-06-26T16:07:19;9.20;9.20;7.20
32066;PMS7003;18573;47.890;35.066;2023-06-26T16:09:50;8.40;8.40;7.80
32066;PMS7003;18573;47.890;35.066;2023-06-26T16:12:20;8.00;8.00;6.00
32066;PMS7003;18573;47.890;35.066;2023-06-26T16:14:52;9.00;9.00;7.60
32066;PMS7003;18573;47.890;35.066;2023-06-26T16:17:22;10.00;10.00;7.40
32066;PMS7003;18573;47.890;35.066;2023-06-26T16:19:53;9.00;9.00;7.00
32066;PMS7003;18573;47.890;35.066;2023-06-26T16:22:22;9.00;9.00;8.40
32066;PMS7003;18573;47.890;35.066;2023-06-26T16:24:52;10.80;10.80;9.00
32066;PMS7003;18573;47.890;35.066;2023-06-26T16:27:22;10.80;10.80;8.60
32066;PMS7003;18573;47.890;35.066;2023-06-26T16:29:51;9.80;9.80;8.20
32066;PMS7003;18573;47.890;35.066;2023-06-26T16:32:21;8.80;8.80;7.80
32066;PMS7003;18573;47.890;35.066;2023-06-26T16:34:50;8.00;8.00;6.80
32066;PMS7003;18573;47.890;35.066;2023-06-26T16:37:20;9.80;9.80;7.20
32066;PMS7003;18573;47.890;35.066;2023-06-26T16:39:50;8.60;8.60;7.20
32066;PMS7003;18573;47.890;35.066;2023-06-26T16:42:19;10.40;10.40;8.00
32066;PMS7003;18573;47.890;35.066;2023-06-26T16:44:50;9.20;9.20;7.60
32066;PMS7003;18573;47.890;35.066;2023-06-26T16:47:20;9.20;9.20;7.60
32066;PMS7003;18573;47.890;35.066;2023-06-26T16:49:49;11.20;11.20;9.20
32066;PMS7003;18573;47.890;35.066;2023-06-26T16:52:19;10.80;10.80;9.40
32066;PMS7003;18573;47.890;35.066;2023-06-26T16:54:48;10.00;10.00;8.00
32066;PMS7003;18573;47.890;35.066;2023-06-26T16:57:19;10.60;10.60;9.20
32066;PMS7003;18573;47.890;35.066;2023-06-26T16:59:48;10.60;10.60;9.00
32066;PMS7003;18573;47.890;35.066;2023-06-26T17:02:17;12.20;11.40;9.00
32066;PMS7003;18573;47.890;35.066;2023-06-26T17:04:46;10.20;10.20;8.80
32066;PMS7003;18573;47.890;35.066;2023-06-26T17:07:16;12.20;12.20;10.00
32066;PMS7003;18573;47.890;35.066;2023-06-26T17:09:47;10.80;10.80;8.00
32066;PMS7003;18573;47.890;35.066;2023-06-26T17:12:16;9.40;9.40;7.60
32066;PMS7003;18573;47.890;35.066;2023-06-26T17:14:45;12.20;12.20;9.20
32066;PMS7003;18573;47.890;35.066;2023-06-26T17:17:15;10.00;10.00;7.20
32066;PMS7003;18573;47.890;35.066;2023-06-26T17:19:45;8.00;8.00;5.80
32066;PMS7003;18573;47.890;35.066;2023-06-26T17:22:14;13.20;13.20;10.40
32066;PMS7003;18573;47.890;35.066;2023-06-26T17:24:44;13.80;13.80;10.40
32066;PMS7003;18573;47.890;35.066;2023-06-26T17:27:14;9.20;9.20;9.20
32066;PMS7003;18573;47.890;35.066;2023-06-26T17:29:45;11.60;11.60;8.60
32066;PMS7003;18573;47.890;35.066;2023-06-26T17:32:14;10.20;10.20;9.20
32066;PMS7003;18573;47.890;35.066;2023-06-26T17:34:46;9.20;9.20;8.20
32066;PMS7003;18573;47.890;35.066;2023-06-26T17:37:16;11.00;11.00;9.60
32066;PMS7003;18573;47.890;35.066;2023-06-26T17:39:47;13.80;13.80;10.80
32066;PMS7003;18573;47.890;35.066;2023-06-26T17:42:17;12.60;12.60;9.40
32066;PMS7003;18573;47.890;35.066;2023-06-26T17:44:46;10.00;10.00;8.00
32066;PMS7003;18573;47.890;35.066;2023-06-26T17:47:15;8.60;8.60;7.60
32066;PMS7003;18573;47.890;35.066;2023-06-26T17:49:46;10.20;10.20;8.80
32066;PMS7003;18573;47.890;35.066;2023-06-26T17:52:16;11.60;11.60;9.20
32066;PMS7003;18573;47.890;35.066;2023-06-26T17:54:45;10.40;10.40;9.60
32066;PMS7003;18573;47.890;35.066;2023-06-26T17:57:14;10.40;10.40;7.80
32066;PMS7003;18573;47.890;35.066;2023-06-26T17:59:44;17.60;17.60;13.60
32066;PMS7003;18573;47.890;35.066;2023-06-26T18:02:13;24.20;24.20;18.80
32066;PMS7003;18573;47.890;35.066;2023-06-26T18:04:42;17.20;17.20;14.20
32066;PMS7003;18573;47.890;35.066;2023-06-26T18:07:12;14.60;14.60;11.80
32066;PMS7003;18573;47.890;35.066;2023-06-26T18:09:43;14.20;14.20;11.20
32066;PMS7003;18573;47.890;35.066;2023-06-26T18:12:12;12.20;12.20;10.20
32066;PMS7003;18573;47.890;35.066;2023-06-26T18:14:42;12.60;12.60;11.00
32066;PMS7003;18573;47.890;35.066;2023-06-26T18:17:13;12.40;12.40;9.40
32066;PMS7003;18573;47.890;35.066;2023-06-26T18:19:42;12.00;12.00;10.00
32066;PMS7003;18573;47.890;35.066;2023-06-26T18:22:11;12.20;12.20;9.20
32066;PMS7003;18573;47.890;35.066;2023-06-26T18:24:40;9.40;9.40;8.20
32066;PMS7003;18573;47.890;35.066;2023-06-26T18:27:10;10.20;10.20;9.00
32066;PMS7003;18573;47.890;35.066;2023-06-26T18:29:39;8.60;8.60;8.20
32066;PMS7003;18573;47.890;35.066;2023-06-26T18:32:10;13.60;13.60;11.40
32066;PMS7003;18573;47.890;35.066;2023-06-26T18:34:40;9.20;9.20;7.40
32066;PMS7003;18573;47.890;35.066;2023-06-26T18:37:11;8.00;8.00;7.00
32066;PMS7003;18573;47.890;35.066;2023-06-26T18:39:41;10.20;10.20;8.40
32066;PMS7003;18573;47.890;35.066;2023-06-26T18:42:10;12.60;12.60;10.80
32066;PMS7003;18573;47.890;35.066;2023-06-26T18:44:40;11.20;11.20;8.40
32066;PMS7003;18573;47.890;35.066;2023-06-26T18:47:10;14.80;14.80;12.60
32066;PMS7003;18573;47.890;35.066;2023-06-26T18:49:41;12.80;12.80;11.00
32066;PMS7003;18573;47.890;35.066;2023-06-26T18:52:10;12.00;12.00;9.80
32066;PMS7003;18573;47.890;35.066;2023-06-26T18:54:42;10.40;10.40;8.40
32066;PMS7003;18573;47.890;35.066;2023-06-26T18:57:15;11.00;11.00;9.80
32066;PMS7003;18573;47.890;35.066;2023-06-26T18:59:45;12.00;12.00;9.20
32066;PMS7003;18573;47.890;35.066;2023-06-26T19:02:14;9.00;9.00;7.20
32066;PMS7003;18573;47.890;35.066;2023-06-26T19:04:45;9.20;9.20;8.40
32066;PMS7003;18573;47.890;35.066;2023-06-26T19:07:14;9.40;9.40;7.60
32066;PMS7003;18573;47.890;35.066;2023-06-26T19:09:43;8.00;8.00;7.00
32066;PMS7003;18573;47.890;35.066;2023-06-26T19:12:13;9.00;9.00;6.80
32066;PMS7003;18573;47.890;35.066;2023-06-26T19:14:44;7.20;7.20;5.20
32066;PMS7003;18573;47.890;35.066;2023-06-26T19:17:13;7.20;7.20;6.20
32066;PMS7003;18573;47.890;35.066;2023-06-26T19:19:44;8.00;8.00;6.80
32066;PMS7003;18573;47.890;35.066;2023-06-26T19:22:14;7.60;7.60;6.60
32066;PMS7003;18573;47.890;35.066;2023-06-26T19:24:46;6.80;6.80;5.00
32066;PMS7003;18573;47.890;35.066;2023-06-26T19:27:19;6.40;6.40;5.40
32066;PMS7003;18573;47.890;35.066;2023-06-26T19:29:49;6.80;6.80;5.00
32066;PMS7003;18573;47.890;35.066;2023-06-26T19:32:18;5.20;5.20;3.80
32066;PMS7003;18573;47.890;35.066;2023-06-26T19:34:48;5.80;5.80;4.80
32066;PMS7003;18573;47.890;35.066;2023-06-26T19:37:17;6.20;6.20;4.40
32066;PMS7003;18573;47.890;35.066;2023-06-26T19:39:46;5.00;5.00;3.80
32066;PMS7003;18573;47.890;35.066;2023-06-26T19:42:16;8.20;8.20;6.80
32066;PMS7003;18573;47.890;35.066;2023-06-26T19:44:45;6.80;6.80;5.20
32066;PMS7003;18573;47.890;35.066;2023-06-26T19:47:15;2.00;2.00;1.00
32066;PMS7003;18573;47.890;35.066;2023-06-26T19:49:44;5.60;5.60;4.40
32066;PMS7003;18573;47.890;35.066;2023-06-26T19:52:15;6.00;6.00;5.60
32066;PMS7003;18573;47.890;35.066;2023-06-26T19:54:44;3.60;3.40;3.00
32066;PMS7003;18573;47.890;35.066;2023-06-26T19:57:14;6.80;6.80;5.80
32066;PMS7003;18573;47.890;35.066;2023-06-26T19:59:43;6.40;6.40;5.80
32066;PMS7003;18573;47.890;35.066;2023-06-26T20:02:12;8.00;8.00;6.60
32066;PMS7003;18573;47.890;35.066;2023-06-26T20:04:43;6.00;6.00;3.60
32066;PMS7003;18573;47.890;35.066;2023-06-26T20:07:12;6.40;6.40;5.80
32066;PMS7003;18573;47.890;35.066;2023-06-26T20:09:41;7.40;7.40;6.20
32066;PMS7003;18573;47.890;35.066;2023-06-26T20:12:10;9.40;9.40;8.40
32066;PMS7003;18573;47.890;35.066;2023-06-26T20:14:40;8.40;8.40;7.00
32066;PMS7003;18573;47.890;35.066;2023-06-26T20:17:10;8.00;8.00;6.80
32066;PMS7003;18573;47.890;35.066;2023-06-26T20:19:41;7.20;7.20;4.60
32066;PMS7003;18573;47.890;35.066;2023-06-26T20:22:10;7.80;7.80;7.00
32066;PMS7003;18573;47.890;35.066;2023-06-26T20:24:39;9.60;9.60;6.80
32066;PMS7003;18573;47.890;35.066;2023-06-26T20:27:08;8.80;8.80;7.60
32066;PMS7003;18573;47.890;35.066;2023-06-26T20:29:37;7.00;7.00;5.80
32066;PMS7003;18573;47.890;35.066;2023-06-26T20:32:07;7.40;7.40;6.20
32066;PMS7003;18573;47.890;35.066;2023-06-26T20:34:36;8.80;8.80;7.60
32066;PMS7003;18573;47.890;35.066;2023-06-26T20:37:06;6.60;6.60;5.00
32066;PMS7003;18573;47.890;35.066;2023-06-26T20:39:35;5.80;5.80;4.40
32066;PMS7003;18573;47.890;35.066;2023-06-26T20:42:04;6.20;6.20;5.20
32066;PMS7003;18573;47.890;35.066;2023-06-26T20:44:36;7.20;7.20;5.80
32066;PMS7003;18573;47.890;35.066;2023-06-26T20:47:06;6.80;6.80;5.80
32066;PMS7003;18573;47.890;35.066;2023-06-26T20:49:36;5.00;5.00;4.20
32066;PMS7003;18573;47.890;35.066;2023-06-26T20:52:10;5.80;5.80;4.40
32066;PMS7003;18573;47.890;35.066;2023-06-26T20:54:39;4.00;4.00;3.40
32066;PMS7003;18573;47.890;35.066;2023-06-26T20:57:10;5.20;5.20;4.60
32066;PMS7003;18573;47.890;35.066;2023-06-26T20:59:39;5.20;5.20;4.20
32066;PMS7003;18573;47.890;35.066;2023-06-26T21:02:08;5.80;5.80;4.40
32066;PMS7003;18573;47.890;35.066;2023-06-26T21:04:37;3.60;3.60;2.40
32066;PMS7003;18573;47.890;35.066;2023-06-26T21:07:07;3.00;3.00;2.00
32066;PMS7003;18573;47.890;35.066;2023-06-26T21:09:37;4.00;4.00;3.00
32066;PMS7003;18573;47.890;35.066;2023-06-26T21:12:06;3.40;3.40;2.80
32066;PMS7003;18573;47.890;35.066;2023-06-26T21:14:37;3.60;3.60;3.00
32066;PMS7003;18573;47.890;35.066;2023-06-26T21:17:07;3.00;3.00;2.80
32066;PMS7003;18573;47.890;35.066;2023-06-26T21:19:36;0.60;0.60;0.20
32066;PMS7003;18573;47.890;35.066;2023-06-26T21:22:05;2.40;2.40;2.20
32066;PMS7003;18573;47.890;35.066;2023-06-26T21:24:35;2.00;2.00;1.60
32066;PMS7003;18573;47.890;35.066;2023-06-26T21:27:05;2.60;2.60;2.00
32066;PMS7003;18573;47.890;35.066;2023-06-26T21:29:34;3.20;3.20;2.60
32066;PMS7003;18573;47.890;35.066;2023-06-26T21:32:04;2.80;2.80;1.80
32066;PMS7003;18573;47.890;35.066;2023-06-26T21:34:33;3.00;3.00;2.80
32066;PMS7003;18573;47.890;35.066;2023-06-26T21:37:02;3.20;3.20;2.60
32066;PMS7003;18573;47.890;35.066;2023-06-26T21:39:32;3.80;3.80;2.60
32066;PMS7003;18573;47.890;35.066;2023-06-26T21:42:02;2.60;2.60;2.60
32066;PMS7003;18573;47.890;35.066;2023-06-26T21:44:31;4.20;4.20;3.80
32066;PMS7003;18573;47.890;35.066;2023-06-26T21:47:00;2.60;2.60;2.00
32066;PMS7003;18573;47.890;35.066;2023-06-26T21:49:30;3.00;3.00;2.80
32066;PMS7003;18573;47.890;35.066;2023-06-26T21:51:59;1.80;1.80;0.40
32066;PMS7003;18573;47.890;35.066;2023-06-26T21:54:28;2.20;2.20;1.40
32066;PMS7003;18573;47.890;35.066;2023-06-26T21:56:57;3.00;3.00;2.60
32066;PMS7003;18573;47.890;35.066;2023-06-26T21:59:26;4.60;4.60;3.00
32066;PMS7003;18573;47.890;35.066;2023-06-26T22:01:55;3.60;3.60;3.00
32066;PMS7003;18573;47.890;35.066;2023-06-26T22:04:24;2.40;2.40;2.20
32066;PMS7003;18573;47.890;35.066;2023-06-26T22:06:53;1.60;1.60;1.00
32066;PMS7003;18573;47.890;35.066;2023-06-26T22:09:23;1.20;1.20;1.20
32066;PMS7003;18573;47.890;35.066;2023-06-26T22:11:53;1.20;1.20;1.20
32066;PMS7003;18573;47.890;35.066;2023-06-26T22:14:22;1.40;1.40;1.00
32066;PMS7003;18573;47.890;35.066;2023-06-26T22:16:51;2.60;2.60;2.60
32066;PMS7003;18573;47.890;35.066;2023-06-26T22:19:20;2.20;2.20;1.20
32066;PMS7003;18573;47.890;35.066;2023-06-26T22:21:49;1.80;1.80;1.80
32066;PMS7003;18573;47.890;35.066;2023-06-26T22:24:19;1.60;1.60;1.00
32066;PMS7003;18573;47.890;35.066;2023-06-26T22:26:48;2.20;2.20;1.20
32066;PMS7003;18573;47.890;35.066;2023-06-26T22:29:17;1.60;1.60;1.20
32066;PMS7003;18573;47.890;35.066;2023-06-26T22:31:46;0.80;0.80;0.80
32066;PMS7003;18573;47.890;35.066;2023-06-26T22:34:15;2.40;2.40;2.00
32066;PMS7003;18573;47.890;35.066;2023-06-26T22:36:44;0.80;0.80;0.80
32066;PMS7003;18573;47.890;35.066;2023-06-26T22:39:13;1.20;1.20;1.00
32066;PMS7003;18573;47.890;35.066;2023-06-26T22:41:43;2.00;2.00;2.00
32066;PMS7003;18573;47.890;35.066;2023-06-26T22:44:12;1.60;1.60;1.40
32066;PMS7003;18573;47.890;35.066;2023-06-26T22:46:42;1.60;1.60;0.80
32066;PMS7003;18573;47.890;35.066;2023-06-26T22:49:12;1.00;1.00;1.00
32066;PMS7003;18573;47.890;35.066;2023-06-26T22:51:41;1.00;1.00;1.00
32066;PMS7003;18573;47.890;35.066;2023-06-26T22:54:10;0.80;0.80;0.60
32066;PMS7003;18573;47.890;35.066;2023-06-26T22:56:39;0.80;0.80;0.40
32066;PMS7003;18573;47.890;35.066;2023-06-26T22:59:10;1.00;1.00;0.00
32066;PMS7003;18573;47.890;35.066;2023-06-26T23:01:39;1.00;1.00;0.40
32066;PMS7003;18573;47.890;35.066;2023-06-26T23:04:08;1.80;1.80;1.20
32066;PMS7003;18573;47.890;35.066;2023-06-26T23:06:38;0.40;0.40;0.20
32066;PMS7003;18573;47.890;35.066;2023-06-26T23:09:09;1.00;1.00;1.00
32066;PMS7003;18573;47.890;35.066;2023-06-26T23:11:41;1.00;1.00;0.40
32066;PMS7003;18573;47.890;35.066;2023-06-26T23:14:10;0.00;0.00;0.00
32066;PMS7003;18573;47.890;35.066;2023-06-26T23:16:41;1.80;1.80;1.00
32066;PMS7003;18573;47.890;35.066;2023-06-26T23:19:11;1.00;1.00;1.00
32066;PMS7003;18573;47.890;35.066;2023-06-26T23:21:41;1.00;1.00;0.40
32066;PMS7003;18573;47.890;35.066;2023-06-26T23:24:10;1.00;1.00;0.40
32066;PMS7003;18573;47.890;35.066;2023-06-26T23:26:39;1.00;1.00;0.80
32066;PMS7003;18573;47.890;35.066;2023-06-26T23:29:09;0.00;0.00;0.00
32066;PMS7003;18573;47.890;35.066;2023-06-26T23:31:38;1.00;1.00;0.80
32066;PMS7003;18573;47.890;35.066;2023-06-26T23:34:09;1.00;1.00;1.00
32066;PMS7003;18573;47.890;35.066;2023-06-26T23:36:39;0.80;0.80;0.60
32066;PMS7003;18573;47.890;35.066;2023-06-26T23:39:08;0.00;0.00;0.00
32066;PMS7003;18573;47.890;35.066;2023-06-26T23:41:38;0.60;0.60;0.40
32066;PMS7003;18573;47.890;35.066;2023-06-26T23:44:07;1.00;1.00;0.80
32066;PMS7003;18573;47.890;35.066;2023-06-26T23:46:40;0.60;0.60;0.40
32066;PMS7003;18573;47.890;35.066;2023-06-26T23:49:10;1.00;1.00;1.00
32066;PMS7003;18573;47.890;35.066;2023-06-26T23:51:40;1.00;1.00;0.40
32066;PMS7003;18573;47.890;35.066;2023-06-26T23:54:11;0.60;0.60;0.20
32066;PMS7003;18573;47.890;35.066;2023-06-26T23:56:41;1.40;1.40;1.00
32066;PMS7003;18573;47.890;35.066;2023-06-26T23:59:11;1.00;1.00;0.60
